createdAt,value
2022-10-29T20:10:58.268Z,18.50
2022-10-29T20:13:28.621Z,22.13
2022-10-29T20:15:55.754Z,21.30
2022-10-29T20:18:29.433Z,16.45
2022-10-29T20:20:56.722Z,21.92
2022-10-29T20:23:26.783Z,19.63
2022-10-29T20:25:55.965Z,32.83
2022-10-29T20:28:26.012Z,23.70
2022-10-29T20:31:17.012Z,22.50
2022-10-29T20:33:58.291Z,19.48
2022-10-29T20:36:30.679Z,14.57
2022-10-29T20:38:57.830Z,20.73
2022-10-29T20:41:27.783Z,17.85
2022-10-29T20:46:50.279Z,19.02
2022-10-29T20:49:19.775Z,19.25
2022-10-29T20:51:46.420Z,15.38
2022-10-29T20:54:16.561Z,13.00
2022-10-29T20:56:44.888Z,12.75
2022-10-29T20:59:12.378Z,9.57
2022-10-29T21:01:39.233Z,12.18
2022-10-29T21:04:08.524Z,12.70
2022-10-29T21:06:40.068Z,17.35
2022-10-29T21:09:09.090Z,16.60
2022-10-29T21:11:40.566Z,13.30
2022-10-29T21:14:11.033Z,12.93
2022-10-29T21:16:39.820Z,14.18
2022-10-29T21:19:06.534Z,10.65
2022-10-29T21:21:35.886Z,15.55
2022-10-29T21:24:06.262Z,12.90
2022-10-29T21:26:36.413Z,15.18
2022-10-29T21:29:05.628Z,13.80
2022-10-29T21:31:32.280Z,13.90
2022-10-29T21:33:58.924Z,15.80
2022-10-29T21:36:27.266Z,13.10
2022-10-29T21:38:54.266Z,9.93
2022-10-29T21:41:24.690Z,12.85
2022-10-29T21:43:51.529Z,15.50
2022-10-29T21:46:18.064Z,16.45
2022-10-29T21:48:47.792Z,18.42
2022-10-29T21:51:17.698Z,17.42
2022-10-29T21:53:45.411Z,13.00
2022-10-29T21:56:15.080Z,20.83
2022-10-29T21:58:42.115Z,18.65
2022-10-29T22:01:09.945Z,30.35
2022-10-29T22:03:39.846Z,18.30
2022-10-29T22:06:11.231Z,16.88
2022-10-29T22:08:38.294Z,19.85
2022-10-29T22:11:10.851Z,12.98
2022-10-29T22:16:05.633Z,9.23
2022-10-29T22:18:33.184Z,10.30
2022-10-29T22:21:06.309Z,7.60
2022-10-29T22:23:37.394Z,10.60
2022-10-29T22:26:04.286Z,11.05
2022-10-29T22:28:31.130Z,10.70
2022-10-29T22:31:02.475Z,11.95
2022-10-29T22:33:30.332Z,11.25
2022-10-29T22:36:13.830Z,8.52
2022-10-29T22:38:40.975Z,12.65
2022-10-29T22:41:15.219Z,7.72
2022-10-29T22:43:42.582Z,8.82
2022-10-29T22:46:10.970Z,9.85
2022-10-29T22:48:38.600Z,9.02
2022-10-29T22:51:08.975Z,11.43
2022-10-29T22:53:39.756Z,12.90
2022-10-29T22:56:33.916Z,6.78
2022-10-29T22:59:08.942Z,7.47
2022-10-29T23:07:39.455Z,7.78
2022-10-29T23:10:08.823Z,8.93
2022-10-29T23:12:38.093Z,7.88
2022-10-29T23:15:07.648Z,9.10
2022-10-29T23:17:34.490Z,9.18
2022-10-29T23:20:01.274Z,9.45
2022-10-29T23:22:27.880Z,8.20
2022-10-29T23:24:54.493Z,20.13
2022-10-29T23:27:24.871Z,6.78
2022-10-29T23:29:51.974Z,12.82
2022-10-29T23:32:24.799Z,6.72
2022-10-29T23:34:51.543Z,5.38
2022-10-29T23:37:18.202Z,7.85
2022-10-29T23:39:44.927Z,6.90
2022-10-29T23:42:13.861Z,7.05
2022-10-29T23:44:40.604Z,8.20
2022-10-29T23:47:07.164Z,6.03
2022-10-29T23:49:35.913Z,5.70
2022-10-29T23:52:03.188Z,6.95
2022-10-29T23:54:29.874Z,7.97
2022-10-29T23:56:56.439Z,6.97
2022-10-29T23:59:25.442Z,7.50
